PWSweather.com
Personal Weather Stations
Station Observations
KAZPHOEN90
RayThunderhill, Phoenix, AZ

RayThunderhillPhoenix, AZ

Lat: 33.312, Lon: -112.029

Elevation: 1260

Station Type: Davis Vantage VUE

High Low Average
Temperature 106.1°F41.2°F 78.0°F25.6°F 90.1°F32.3°F
Dew Point 67.8°F19.9°F 58.1°F14.5°F 63.2°F17.3°F
Winds 8.6 mph NW13.8 mph NW Calm Calm 2.3 mph 3.7 mph
Wind Gusts 14.0 mph22.5 mph -- 5.0 mph8.0 mph
Humidity 71% 22% 45%
Pressure 29.82 in1009.80 in 29.60 in1002.40 in -
Precipitation 0.06 in1.50 in - -
Hour Temp Dew Point Humidity Winds Wind Gusts Pressure Precip Precip Rate Daily Precip Total
12:00 AM 86.2°F30.1°C 66.0°F18.9°C 51% 0.2 mph SE0.3 kmh SE 2.0 mph3.2 kmh 29.67 in1004.7 mb - 0.00 in0.0 mm 0.00 in0.0 mm
12:15 AM 85.5°F29.7°C 66.4°F19.1°C 53% 0.7 mph NE1.1 kmh NE 2.0 mph3.2 kmh 29.68 in1005.1 mb - 0.00 in0.0 mm 0.00 in0.0 mm
12:30 AM 84.9°F29.4°C 66.4°F19.1°C 54% 0.3 mph E0.5 kmh E 2.0 mph3.2 kmh 29.68 in1005.1 mb - 0.00 in0.0 mm 0.00 in0.0 mm
12:45 AM 84.8°F29.3°C 66.3°F19.1°C 54% Calm Calm -- 29.68 in1005.1 mb - 0.00 in0.0 mm 0.00 in0.0 mm
01:00 AM 84.3°F29.1°C 65.8°F18.8°C 54% Calm Calm -- 29.68 in1005.1 mb - 0.00 in0.0 mm 0.00 in0.0 mm
01:15 AM 84.1°F28.9°C 66.2°F19.0°C 55% Calm Calm -- 29.68 in1005.1 mb - 0.00 in0.0 mm 0.00 in0.0 mm
01:30 AM 83.7°F28.7°C 66.8°F19.3°C 57% Calm Calm -- 29.68 in1005.1 mb - 0.00 in0.0 mm 0.00 in0.0 mm
01:45 AM 83.1°F28.4°C 66.8°F19.3°C 58% Calm Calm -- 29.69 in1005.4 mb - 0.00 in0.0 mm 0.00 in0.0 mm
02:00 AM 82.9°F28.3°C 66.1°F18.9°C 57% Calm Calm -- 29.69 in1005.4 mb - 0.00 in0.0 mm 0.00 in0.0 mm
02:15 AM 82.7°F28.2°C 66.4°F19.1°C 58% Calm Calm -- 29.69 in1005.4 mb - 0.00 in0.0 mm 0.00 in0.0 mm
02:30 AM 81.8°F27.7°C 66.1°F18.9°C 59% Calm Calm -- 29.70 in1005.8 mb - 0.00 in0.0 mm 0.00 in0.0 mm
02:45 AM 81.8°F27.7°C 65.6°F18.7°C 58% Calm Calm -- 29.70 in1005.8 mb - 0.00 in0.0 mm 0.00 in0.0 mm
03:00 AM 82.6°F28.1°C 65.3°F18.5°C 56% Calm Calm -- 29.70 in1005.8 mb - 0.00 in0.0 mm 0.00 in0.0 mm
03:15 AM 82.2°F27.9°C 65.5°F18.6°C 57% Calm Calm -- 29.69 in1005.4 mb - 0.00 in0.0 mm 0.00 in0.0 mm
03:30 AM 81.5°F27.5°C 66.3°F19.1°C 60% Calm Calm -- 29.69 in1005.4 mb - 0.00 in0.0 mm 0.00 in0.0 mm
03:45 AM 81.0°F27.2°C 65.8°F18.8°C 60% Calm Calm -- 29.69 in1005.4 mb - 0.00 in0.0 mm 0.00 in0.0 mm
04:00 AM 80.7°F27.1°C 66.0°F18.9°C 61% Calm Calm -- 29.70 in1005.8 mb - 0.00 in0.0 mm 0.00 in0.0 mm
04:15 AM 80.7°F27.1°C 66.5°F19.2°C 62% Calm Calm -- 29.70 in1005.8 mb - 0.00 in0.0 mm 0.00 in0.0 mm
04:30 AM 80.5°F26.9°C 66.7°F19.3°C 63% Calm Calm -- 29.70 in1005.8 mb - 0.00 in0.0 mm 0.00 in0.0 mm
04:45 AM 80.1°F26.7°C 66.4°F19.1°C 63% Calm Calm -- 29.70 in1005.8 mb - 0.00 in0.0 mm 0.00 in0.0 mm
05:00 AM 79.6°F26.4°C 66.8°F19.3°C 65% Calm Calm -- 29.70 in1005.8 mb - 0.00 in0.0 mm 0.00 in0.0 mm
05:15 AM 78.7°F25.9°C 65.9°F18.8°C 65% Calm Calm -- 29.71 in1006.1 mb - 0.00 in0.0 mm 0.00 in0.0 mm
05:30 AM 78.7°F25.9°C 67.2°F19.6°C 68% Calm Calm -- 29.71 in1006.1 mb - 0.00 in0.0 mm 0.00 in0.0 mm
05:45 AM 78.6°F25.9°C 66.7°F19.3°C 67% Calm Calm -- 29.71 in1006.1 mb - 0.00 in0.0 mm 0.00 in0.0 mm
06:00 AM 78.7°F25.9°C 66.8°F19.3°C 67% Calm Calm -- 29.72 in1006.4 mb - 0.00 in0.0 mm 0.00 in0.0 mm
06:15 AM 78.8°F26.0°C 67.0°F19.4°C 67% Calm Calm -- 29.72 in1006.4 mb - 0.00 in0.0 mm 0.00 in0.0 mm
06:30 AM 78.3°F25.7°C 67.3°F19.6°C 69% Calm Calm -- 29.73 in1006.8 mb - 0.00 in0.0 mm 0.00 in0.0 mm
06:45 AM 78.5°F25.8°C 67.5°F19.7°C 69% Calm Calm -- 29.73 in1006.8 mb - 0.00 in0.0 mm 0.00 in0.0 mm
07:00 AM 79.9°F26.6°C 67.5°F19.7°C 66% Calm Calm -- 29.74 in1007.1 mb - 0.00 in0.0 mm 0.00 in0.0 mm
07:15 AM 84.1°F28.9°C 68.2°F20.1°C 59% Calm Calm -- 29.75 in1007.5 mb - 0.00 in0.0 mm 0.00 in0.0 mm
07:30 AM 86.8°F30.4°C 67.6°F19.8°C 53% Calm Calm -- 29.75 in1007.5 mb - 0.00 in0.0 mm 0.00 in0.0 mm
07:45 AM 89.0°F31.7°C 67.4°F19.7°C 49% Calm Calm -- 29.76 in1007.8 mb - 0.00 in0.0 mm 0.00 in0.0 mm
08:00 AM 89.6°F32.0°C 66.1°F18.9°C 46% Calm Calm -- 29.76 in1007.8 mb - 0.00 in0.0 mm 0.00 in0.0 mm
08:15 AM 90.8°F32.7°C 66.5°F19.2°C 45% 0.3 mph SE0.5 kmh SE 1.0 mph1.6 kmh 29.76 in1007.8 mb - 0.00 in0.0 mm 0.00 in0.0 mm
08:30 AM 90.9°F32.7°C 66.0°F18.9°C 44% 0.4 mph SE0.6 kmh SE 2.0 mph3.2 kmh 29.76 in1007.8 mb - 0.00 in0.0 mm 0.00 in0.0 mm
08:45 AM 92.3°F33.5°C 66.6°F19.2°C 43% 0.1 mph SE0.2 kmh SE 1.0 mph1.6 kmh 29.76 in1007.8 mb - 0.00 in0.0 mm 0.00 in0.0 mm
09:00 AM 91.3°F32.9°C 65.7°F18.7°C 43% 0.1 mph E0.2 kmh E 1.0 mph1.6 kmh 29.77 in1008.1 mb - 0.00 in0.0 mm 0.00 in0.0 mm
09:15 AM 92.6°F33.7°C 66.2°F19.0°C 42% Calm Calm -- 29.77 in1008.1 mb - 0.00 in0.0 mm 0.00 in0.0 mm
09:30 AM 93.4°F34.1°C 65.5°F18.6°C 40% 0.5 mph ESE0.8 kmh ESE 1.0 mph1.6 kmh 29.78 in1008.5 mb - 0.00 in0.0 mm 0.00 in0.0 mm
09:45 AM 93.2°F34.0°C 66.0°F18.9°C 41% 2.1 mph SSE3.4 kmh SSE 2.0 mph3.2 kmh 29.78 in1008.5 mb - 0.00 in0.0 mm 0.00 in0.0 mm
10:00 AM 94.3°F34.6°C 66.3°F19.1°C 40% 1.7 mph ESE2.7 kmh ESE 5.0 mph8.0 kmh 29.77 in1008.1 mb - 0.00 in0.0 mm 0.00 in0.0 mm
10:15 AM 95.0°F35.0°C 66.2°F19.0°C 39% 1.3 mph SSE2.1 kmh SSE 2.0 mph3.2 kmh 29.77 in1008.1 mb - 0.00 in0.0 mm 0.00 in0.0 mm
10:30 AM 95.8°F35.4°C 66.1°F18.9°C 38% 0.6 mph SE1.0 kmh SE 3.0 mph4.8 kmh 29.77 in1008.1 mb - 0.00 in0.0 mm 0.00 in0.0 mm
10:45 AM 96.8°F36.0°C 66.3°F19.1°C 37% 2.0 mph SE3.2 kmh SE 3.0 mph4.8 kmh 29.77 in1008.1 mb - 0.00 in0.0 mm 0.00 in0.0 mm
11:00 AM 97.9°F36.6°C 64.8°F18.2°C 34% 1.0 mph NW1.6 kmh NW 2.0 mph3.2 kmh 29.76 in1007.8 mb - 0.00 in0.0 mm 0.00 in0.0 mm
11:15 AM 97.9°F36.6°C 64.8°F18.2°C 34% 2.2 mph SSW3.5 kmh SSW 3.0 mph4.8 kmh 29.76 in1007.8 mb - 0.00 in0.0 mm 0.00 in0.0 mm
11:30 AM 98.6°F37.0°C 66.2°F19.0°C 35% 0.4 mph SE0.6 kmh SE 1.0 mph1.6 kmh 29.76 in1007.8 mb - 0.00 in0.0 mm 0.00 in0.0 mm
11:45 AM 100.5°F38.1°C 65.3°F18.5°C 32% Calm Calm -- 29.74 in1007.1 mb - 0.00 in0.0 mm 0.00 in0.0 mm
12:00 PM 100.3°F37.9°C 66.0°F18.9°C 33% 0.1 mph S0.2 kmh S 1.0 mph1.6 kmh 29.74 in1007.1 mb - 0.00 in0.0 mm 0.00 in0.0 mm
12:15 PM 100.6°F38.1°C 65.4°F18.6°C 32% 0.1 mph E0.2 kmh E 2.0 mph3.2 kmh 29.74 in1007.1 mb - 0.00 in0.0 mm 0.00 in0.0 mm
12:30 PM 101.4°F38.6°C 65.1°F18.4°C 31% 0.6 mph S1.0 kmh S 2.0 mph3.2 kmh 29.73 in1006.8 mb - 0.00 in0.0 mm 0.00 in0.0 mm
12:45 PM 102.0°F38.9°C 63.8°F17.7°C 29% 0.2 mph SW0.3 kmh SW 1.0 mph1.6 kmh 29.71 in1006.1 mb - 0.00 in0.0 mm 0.00 in0.0 mm
01:00 PM 103.4°F39.7°C 61.8°F16.6°C 26% Calm Calm -- 29.71 in1006.1 mb - 0.00 in0.0 mm 0.00 in0.0 mm
01:15 PM 102.5°F39.2°C 61.1°F16.2°C 26% 1.1 mph S1.8 kmh S 1.0 mph1.6 kmh 29.71 in1006.1 mb - 0.00 in0.0 mm 0.00 in0.0 mm
01:30 PM 102.8°F39.3°C 61.3°F16.3°C 26% 3.0 mph SW4.8 kmh SW 5.0 mph8.0 kmh 29.70 in1005.8 mb - 0.00 in0.0 mm 0.00 in0.0 mm
01:45 PM 103.4°F39.7°C 61.8°F16.6°C 26% 1.5 mph SE2.4 kmh SE 1.0 mph1.6 kmh 29.69 in1005.4 mb - 0.00 in0.0 mm 0.00 in0.0 mm
02:00 PM 104.5°F40.3°C 60.5°F15.8°C 24% 1.9 mph SW3.1 kmh SW 4.0 mph6.4 kmh 29.67 in1004.7 mb - 0.00 in0.0 mm 0.00 in0.0 mm
02:15 PM 103.9°F39.9°C 60.0°F15.6°C 24% 3.3 mph SW5.3 kmh SW 3.0 mph4.8 kmh 29.67 in1004.7 mb - 0.00 in0.0 mm 0.00 in0.0 mm
02:30 PM 104.1°F40.1°C 61.3°F16.3°C 25% 0.7 mph SE1.1 kmh SE 2.0 mph3.2 kmh 29.66 in1004.4 mb - 0.00 in0.0 mm 0.00 in0.0 mm
02:45 PM 104.4°F40.2°C 62.7°F17.1°C 26% 0.3 mph NW0.5 kmh NW 1.0 mph1.6 kmh 29.66 in1004.4 mb - 0.00 in0.0 mm 0.00 in0.0 mm
03:00 PM 104.5°F40.3°C 59.3°F15.2°C 23% 0.4 mph SSW0.6 kmh SSW 2.0 mph3.2 kmh 29.64 in1003.7 mb - 0.00 in0.0 mm 0.00 in0.0 mm
03:15 PM 104.5°F40.3°C 59.3°F15.2°C 23% 0.1 mph NW0.2 kmh NW 2.0 mph3.2 kmh 29.63 in1003.4 mb - 0.00 in0.0 mm 0.00 in0.0 mm
03:30 PM 104.6°F40.3°C 59.4°F15.2°C 23% 0.2 mph S0.3 kmh S 4.0 mph6.4 kmh 29.63 in1003.4 mb - 0.00 in0.0 mm 0.00 in0.0 mm
03:45 PM 105.1°F40.6°C 58.6°F14.8°C 22% 1.4 mph SE2.3 kmh SE 2.0 mph3.2 kmh 29.62 in1003.0 mb - 0.00 in0.0 mm 0.00 in0.0 mm
04:00 PM 105.5°F40.8°C 60.2°F15.7°C 23% 1.3 mph SW2.1 kmh SW 3.0 mph4.8 kmh 29.62 in1003.0 mb - 0.00 in0.0 mm 0.00 in0.0 mm
04:15 PM 105.7°F40.9°C 59.1°F15.1°C 22% 2.4 mph S3.9 kmh S 5.0 mph8.0 kmh 29.62 in1003.0 mb - 0.00 in0.0 mm 0.00 in0.0 mm
04:30 PM 106.1°F41.2°C 59.4°F15.2°C 22% 0.8 mph W1.3 kmh W 3.0 mph4.8 kmh 29.61 in1002.7 mb - 0.00 in0.0 mm 0.00 in0.0 mm
04:45 PM 105.7°F40.9°C 59.0°F15.0°C 22% 0.8 mph SSE1.3 kmh SSE 4.0 mph6.4 kmh 29.60 in1002.4 mb - 0.00 in0.0 mm 0.00 in0.0 mm
05:00 PM 105.6°F40.9°C 59.0°F15.0°C 22% 0.5 mph S0.8 kmh S 6.0 mph9.7 kmh 29.60 in1002.4 mb - 0.00 in0.0 mm 0.00 in0.0 mm
05:15 PM 105.5°F40.8°C 58.9°F14.9°C 22% 1.4 mph SW2.3 kmh SW 3.0 mph4.8 kmh 29.60 in1002.4 mb - 0.00 in0.0 mm 0.00 in0.0 mm
05:30 PM 106.1°F41.2°C 59.4°F15.2°C 22% Calm Calm 2.0 mph3.2 kmh 29.60 in1002.4 mb - 0.00 in0.0 mm 0.00 in0.0 mm
05:45 PM 105.0°F40.6°C 59.7°F15.4°C 23% 0.1 mph SSE0.2 kmh SSE -- 29.61 in1002.7 mb - 0.00 in0.0 mm 0.00 in0.0 mm
06:00 PM 104.5°F40.3°C 59.3°F15.2°C 23% 1.4 mph SE2.3 kmh SE 2.0 mph3.2 kmh 29.61 in1002.7 mb - 0.00 in0.0 mm 0.00 in0.0 mm
06:15 PM 103.2°F39.6°C 58.2°F14.6°C 23% Calm Calm -- 29.61 in1002.7 mb - 0.00 in0.0 mm 0.00 in0.0 mm
06:30 PM 101.6°F38.7°C 58.1°F14.5°C 24% 0.5 mph SE0.8 kmh SE -- 29.62 in1003.0 mb - 0.00 in0.0 mm 0.00 in0.0 mm
06:45 PM 100.8°F38.2°C 58.5°F14.7°C 25% Calm Calm -- 29.61 in1002.7 mb - 0.00 in0.0 mm 0.00 in0.0 mm
07:00 PM 99.9°F37.7°C 58.9°F14.9°C 26% Calm Calm -- 29.61 in1002.7 mb - 0.00 in0.0 mm 0.00 in0.0 mm
07:15 PM 99.4°F37.4°C 58.5°F14.7°C 26% 6.4 mph WSW10.3 kmh WSW 12.0 mph19.3 kmh 29.64 in1003.7 mb - 0.00 in0.0 mm 0.00 in0.0 mm
07:30 PM 92.0°F33.3°C 62.8°F17.1°C 38% 7.6 mph WSW12.2 kmh WSW 11.0 mph17.7 kmh 29.63 in1003.4 mb - 0.00 in0.0 mm 0.00 in0.0 mm
07:45 PM 86.5°F30.3°C 64.5°F18.1°C 48% 8.6 mph NW13.8 kmh NW 14.0 mph22.5 kmh 29.68 in1005.1 mb - 0.00 in0.0 mm 0.00 in0.0 mm
08:00 PM 81.2°F27.3°C 64.5°F18.1°C 57% 2.2 mph NNE3.5 kmh NNE 6.0 mph9.7 kmh 29.67 in1004.7 mb - 0.06 in1.5 mm 0.06 in1.5 mm
08:15 PM 83.3°F28.5°C 64.9°F18.3°C 54% 2.4 mph E3.9 kmh E 4.0 mph6.4 kmh 29.70 in1005.8 mb - 0.00 in0.0 mm 0.06 in1.5 mm
08:30 PM 82.6°F28.1°C 65.8°F18.8°C 57% 4.3 mph NW6.9 kmh NW 9.0 mph14.5 kmh 29.69 in1005.4 mb - 0.00 in0.0 mm 0.06 in1.5 mm
08:45 PM 82.4°F28.0°C 64.6°F18.1°C 55% 5.5 mph NNW8.9 kmh NNW 9.0 mph14.5 kmh 29.69 in1005.4 mb - 0.00 in0.0 mm 0.06 in1.5 mm
09:00 PM 84.3°F29.1°C 63.1°F17.3°C 49% 0.8 mph SE1.3 kmh SE 3.0 mph4.8 kmh 29.69 in1005.4 mb - 0.00 in0.0 mm 0.06 in1.5 mm
09:15 PM 84.1°F28.9°C 64.6°F18.1°C 52% 2.6 mph ESE4.2 kmh ESE 8.0 mph12.9 kmh 29.73 in1006.8 mb - 0.00 in0.0 mm 0.06 in1.5 mm
09:30 PM 83.2°F28.4°C 65.9°F18.8°C 56% 0.9 mph NNW1.4 kmh NNW 3.0 mph4.8 kmh 29.72 in1006.4 mb - 0.00 in0.0 mm 0.06 in1.5 mm
09:45 PM 83.2°F28.4°C 65.4°F18.6°C 55% 0.4 mph SSE0.6 kmh SSE 1.0 mph1.6 kmh 29.74 in1007.1 mb - 0.00 in0.0 mm 0.06 in1.5 mm
10:00 PM 82.8°F28.2°C 66.0°F18.9°C 57% 0.1 mph SE0.2 kmh SE 1.0 mph1.6 kmh 29.76 in1007.8 mb - 0.00 in0.0 mm 0.06 in1.5 mm
10:15 PM 82.8°F28.2°C 67.0°F19.4°C 59% 2.4 mph SE3.9 kmh SE 4.0 mph6.4 kmh 29.77 in1008.1 mb - 0.00 in0.0 mm 0.06 in1.5 mm
10:30 PM 82.1°F27.8°C 66.4°F19.1°C 59% 2.3 mph E3.7 kmh E 8.0 mph12.9 kmh 29.77 in1008.1 mb - 0.00 in0.0 mm 0.06 in1.5 mm
10:45 PM 81.8°F27.7°C 66.1°F18.9°C 59% 3.9 mph E6.3 kmh E 9.0 mph14.5 kmh 29.78 in1008.5 mb - 0.00 in0.0 mm 0.06 in1.5 mm
11:00 PM 81.4°F27.4°C 67.1°F19.5°C 62% 1.4 mph E2.3 kmh E 6.0 mph9.7 kmh 29.80 in1009.1 mb - 0.00 in0.0 mm 0.06 in1.5 mm
11:15 PM 80.4°F26.9°C 67.6°F19.8°C 65% 5.0 mph E8.0 kmh E 7.0 mph11.3 kmh 29.80 in1009.1 mb - 0.00 in0.0 mm 0.06 in1.5 mm
11:30 PM 78.7°F25.9°C 67.7°F19.8°C 69% 3.0 mph ENE4.8 kmh ENE 6.0 mph9.7 kmh 29.82 in1009.8 mb - 0.00 in0.0 mm 0.06 in1.5 mm
11:45 PM 78.0°F25.6°C 67.8°F19.9°C 71% 0.8 mph ENE1.3 kmh ENE 6.0 mph9.7 kmh 29.82 in1009.8 mb - 0.00 in0.0 mm 0.06 in1.5 mm